METAR AND TAF INFORMATION
METAR FOR LOWI
ADDS - METARS form results

(0731 UTC 28 October 2021)
Data provider http://aviationweather.gov/metar/data/
 
METAR text: LOWI 280720Z VRB01KT CAVOK 01/01 Q1024 NOSIG
Conditions at: LOWI (INNSBRUCK AIRPOR, AT) observed 0720 UTC 28 October 2021
Temperature: 1.0°C (34°F)
Dewpoint: 1.0°C (34°F) [RH = 100%]
Pressure (altimeter): 30.24 inches Hg (1024.0 mb)
Winds: variable direction winds at 1 MPH (1 knots; 0.5 m/s)
Visibility: 6 or more miles (10+ km)
Ceiling: ceiling and visibility are OK
Clouds: unknown
Weather: no significant weather observed at this time

METAR text: LOWI 280650Z VRB01KT CAVOK M00/M01 Q1024 NOSIG
Conditions at: LOWI (INNSBRUCK AIRPOR, AT) observed 0650 UTC 28 October 2021
Temperature: 0.0°C (32°F)
Dewpoint: -1.0°C (30°F) [RH = 93%]
Pressure (altimeter): 30.24 inches Hg (1024.0 mb)
Winds: variable direction winds at 1 MPH (1 knots; 0.5 m/s)
Visibility: 6 or more miles (10+ km)
Ceiling: ceiling and visibility are OK
Clouds: unknown
Weather: no significant weather observed at this time

Forecast for: LOWI (INNSBRUCK AIRPOR, AT)
Text: TAF LOWI 280515Z 2806/2906 27004KT CAVOK TX16/2814Z TNM01/2806Z
Forecast period: 0600 UTC 28 October 2021 to 0600 UTC 29 October 2021
Forecast type: FROM: standard forecast or significant change
Winds: from the W (270 degrees) at 5 MPH (4 knots; 2.1 m/s)
Visibility: 6 or more miles (10+ km)
Ceiling: unknown
Clouds: missing
Weather: no significant weather forecast for this period

 AIRPORT MAP

 RUNWAY INFORMATION
Runway 08 Runway length 6562 ft Runway width 148 ft
Runway elevation 1906 ft Runway displaced threshold 339 ft Runway heading 81
Runway 26 Runway length 6562 ft Runway width 148 ft
Runway elevation 1893 ft Runway displaced threshold 198 ft Runway heading 261

 AIRPORT FREQUENCIES
Type APP Name APP Frequency 119.275 MHZ
Type ATIS Name ATIS Frequency 126.025 MHZ
Type TWR Name TWR Frequency 120.1 MHZ
Type GND Crew Name Frequency 121.8 MHZ
Type GND Crew Name Frequency 121.9 MHZ

 AIRPORT NEAR NAVIGATION AIDS
Type NDB Name Innsbruck Frequency 420 KHZ
Type NDB Name Kuhtai Frequency 413 KHZ

-